createdAt,value
2022-09-06T00:00:31.712Z,2.80
2022-09-06T00:03:01.200Z,2.77
2022-09-06T00:05:30.883Z,3.63
2022-09-06T00:08:00.587Z,3.90
2022-09-06T00:10:29.623Z,3.50
2022-09-06T00:13:01.246Z,3.10
2022-09-06T00:15:29.691Z,3.00
2022-09-06T00:18:01.581Z,3.53
2022-09-06T00:20:31.389Z,3.67
2022-09-06T00:23:01.114Z,3.83
2022-09-06T00:25:30.121Z,3.20
2022-09-06T00:27:59.158Z,2.73
2022-09-06T00:30:28.923Z,3.50
2022-09-06T00:32:58.074Z,2.90
2022-09-06T00:35:29.044Z,3.37
2022-09-06T00:38:01.652Z,3.37
2022-09-06T00:40:33.680Z,3.13
2022-09-06T00:43:01.970Z,3.13
2022-09-06T00:45:32.471Z,3.30
2022-09-06T00:48:02.070Z,3.30
2022-09-06T00:50:32.009Z,3.17
2022-09-06T00:53:00.768Z,2.77
2022-09-06T00:55:29.281Z,3.03
2022-09-06T00:57:57.892Z,3.10
2022-09-06T01:00:26.322Z,2.87
2022-09-06T01:02:55.687Z,3.00
2022-09-06T01:05:29.148Z,3.60
2022-09-06T01:08:14.457Z,3.70
2022-09-06T01:11:08.011Z,5.00
2022-09-06T01:13:46.822Z,5.40
2022-09-06T01:16:24.127Z,4.97
2022-09-06T01:19:29.413Z,4.87
2022-09-06T01:22:10.642Z,5.50
2022-09-06T01:25:00.835Z,5.30
2022-09-06T01:28:02.950Z,4.60
2022-09-06T01:30:34.412Z,4.60
2022-09-06T01:33:11.830Z,5.30
2022-09-06T01:35:44.767Z,4.40
2022-09-06T01:38:14.535Z,4.67
2022-09-06T01:40:43.007Z,4.00
2022-09-06T01:43:17.867Z,4.77
2022-09-06T01:45:55.297Z,3.90
2022-09-06T01:48:31.628Z,4.13
2022-09-06T01:51:10.521Z,3.67
2022-09-06T01:53:55.424Z,4.40
2022-09-06T01:56:33.720Z,4.10
2022-09-06T01:59:27.080Z,4.40
2022-09-06T02:02:04.093Z,4.30
2022-09-06T02:04:37.924Z,4.00
2022-09-06T02:07:14.427Z,4.30
2022-09-06T02:09:45.775Z,3.57
2022-09-06T02:12:18.233Z,3.90
2022-09-06T02:14:53.979Z,3.63
2022-09-06T02:17:28.604Z,3.77
2022-09-06T02:20:00.217Z,3.63
2022-09-06T02:22:33.020Z,4.33
2022-09-06T02:25:04.226Z,3.47
2022-09-06T02:27:33.782Z,4.47
2022-09-06T02:30:04.086Z,4.40
2022-09-06T02:32:36.058Z,3.87
2022-09-06T02:35:10.515Z,4.20
2022-09-06T02:37:39.363Z,4.27
2022-09-06T02:40:09.054Z,4.10
2022-09-06T02:42:37.513Z,3.27
2022-09-06T02:45:08.187Z,3.73
2022-09-06T02:47:36.643Z,3.47
2022-09-06T02:50:05.025Z,3.60
2022-09-06T02:52:33.283Z,3.70
2022-09-06T02:55:02.765Z,4.30
2022-09-06T02:57:31.044Z,4.17
2022-09-06T02:59:59.257Z,4.30
2022-09-06T03:02:29.325Z,4.00
2022-09-06T03:04:57.639Z,4.03
2022-09-06T03:07:26.360Z,3.87
2022-09-06T03:09:57.116Z,3.97
2022-09-06T03:12:25.384Z,3.60
2022-09-06T03:14:55.074Z,4.10
2022-09-06T03:17:23.561Z,3.70
2022-09-06T03:19:53.431Z,3.50
2022-09-06T03:22:21.704Z,3.90
2022-09-06T03:24:50.012Z,3.97
2022-09-06T03:27:18.227Z,4.47
2022-09-06T03:29:46.560Z,3.30
2022-09-06T03:32:14.920Z,3.80
2022-09-06T03:34:43.379Z,4.00
2022-09-06T03:37:13.064Z,3.87
2022-09-06T03:39:41.449Z,4.23
2022-09-06T03:42:09.759Z,3.83
2022-09-06T03:44:38.099Z,4.00
2022-09-06T03:47:06.943Z,3.87
2022-09-06T03:49:35.203Z,3.80
2022-09-06T03:52:03.966Z,4.57
2022-09-06T03:54:33.780Z,4.07
2022-09-06T03:57:02.099Z,4.00
2022-09-06T03:59:30.553Z,3.97
2022-09-06T04:01:58.922Z,4.27
2022-09-06T04:04:27.363Z,3.67
2022-09-06T04:06:55.657Z,4.27
2022-09-06T04:09:24.059Z,4.30
2022-09-06T04:11:53.657Z,3.97
2022-09-06T04:14:21.944Z,3.63
2022-09-06T04:16:50.458Z,3.67
2022-09-06T04:19:18.862Z,4.30
2022-09-06T04:21:47.133Z,3.80
2022-09-06T04:24:15.503Z,3.50
2022-09-06T04:26:44.008Z,3.50
2022-09-06T04:29:13.723Z,3.43
2022-09-06T04:31:41.900Z,4.43
2022-09-06T04:34:10.220Z,4.17
2022-09-06T04:36:38.544Z,5.03
2022-09-06T04:39:06.989Z,5.00
2022-09-06T04:41:35.255Z,4.50
2022-09-06T04:44:03.883Z,3.80
2022-09-06T04:46:33.513Z,3.80
2022-09-06T04:49:01.800Z,3.80
2022-09-06T04:51:39.959Z,3.90
2022-09-06T04:54:08.276Z,4.10
2022-09-06T04:56:36.668Z,3.43
2022-09-06T04:59:04.968Z,3.47
2022-09-06T05:01:34.640Z,3.70
2022-09-06T05:04:03.427Z,3.20
2022-09-06T05:06:31.659Z,3.53
2022-09-06T05:08:59.915Z,3.70
2022-09-06T05:11:28.363Z,3.60
2022-09-06T05:13:56.575Z,3.70
2022-09-06T05:16:24.928Z,3.30
2022-09-06T05:18:54.627Z,4.20
2022-09-06T05:21:22.968Z,4.90
2022-09-06T05:23:54.323Z,4.90
2022-09-06T05:26:24.855Z,4.90
2022-09-06T05:28:53.063Z,4.10
2022-09-06T05:31:27.995Z,4.50
2022-09-06T05:33:58.647Z,4.70
2022-09-06T05:36:27.523Z,4.20
2022-09-06T05:38:57.733Z,3.90
2022-09-06T05:41:26.588Z,3.93
2022-09-06T05:43:54.882Z,3.83
2022-09-06T05:46:23.377Z,4.17
2022-09-06T05:48:56.024Z,3.90
2022-09-06T05:51:25.704Z,4.00
2022-09-06T05:53:53.986Z,4.10
2022-09-06T05:56:22.663Z,4.53
2022-09-06T05:58:50.920Z,4.17
2022-09-06T06:01:20.878Z,4.00
2022-09-06T06:03:53.378Z,4.30
2022-09-06T06:06:22.954Z,4.60
2022-09-06T06:08:53.258Z,4.73
2022-09-06T06:11:21.978Z,5.10
2022-09-06T06:13:50.957Z,5.07
2022-09-06T06:16:20.994Z,4.60
2022-09-06T06:18:52.269Z,4.33
2022-09-06T06:21:23.811Z,4.83
2022-09-06T06:23:55.530Z,4.60
2022-09-06T06:26:24.632Z,4.80
2022-09-06T06:28:53.438Z,4.60
2022-09-06T06:31:22.851Z,4.77
2022-09-06T06:33:51.749Z,4.83
2022-09-06T06:36:22.759Z,4.83
2022-09-06T06:38:55.655Z,4.33
2022-09-06T06:41:26.620Z,4.33
2022-09-06T06:43:55.778Z,5.13
2022-09-06T06:46:25.915Z,4.80
2022-09-06T06:48:55.778Z,5.57
2022-09-06T06:51:26.772Z,4.90
2022-09-06T06:53:57.922Z,5.67
2022-09-06T06:56:28.397Z,5.10
2022-09-06T06:58:58.498Z,4.67
2022-09-06T07:01:29.001Z,4.80
2022-09-06T07:03:58.159Z,4.70
2022-09-06T07:09:19.302Z,4.80
2022-09-06T07:11:48.924Z,5.10
2022-09-06T07:14:17.634Z,5.13
2022-09-06T07:16:46.247Z,5.37
2022-09-06T07:22:05.202Z,5.00
2022-09-06T07:24:35.911Z,4.50
2022-09-06T07:29:52.600Z,4.13
2022-09-06T07:32:21.210Z,5.07
2022-09-06T07:34:49.491Z,5.97
2022-09-06T07:37:17.837Z,4.80
2022-09-06T07:39:47.745Z,5.37
2022-09-06T07:42:16.872Z,5.13
2022-09-06T07:44:45.199Z,4.90
2022-09-06T07:53:10.800Z,4.00
2022-09-06T07:55:42.124Z,4.00
2022-09-06T07:58:11.058Z,3.70
2022-09-06T08:00:41.425Z,4.27
2022-09-06T08:03:10.269Z,3.57
2022-09-06T08:11:17.616Z,4.17
2022-09-06T08:13:46.336Z,3.67
2022-09-06T08:16:16.252Z,3.80
2022-09-06T08:18:45.436Z,3.80
2022-09-06T08:21:15.288Z,4.03
2022-09-06T08:23:48.649Z,5.13
2022-09-06T08:26:20.854Z,4.73
2022-09-06T08:28:49.155Z,5.33
2022-09-06T08:31:19.318Z,5.20
2022-09-06T08:33:47.774Z,5.17
2022-09-06T08:36:16.376Z,4.40
2022-09-06T08:38:45.710Z,4.60
2022-09-06T08:41:25.709Z,4.10
2022-09-06T08:46:54.106Z,4.67
2022-09-06T08:49:23.221Z,5.33
2022-09-06T08:52:15.729Z,5.03
2022-09-06T08:54:49.547Z,4.60
2022-09-06T08:57:35.026Z,4.37
2022-09-06T09:00:11.246Z,4.60
2022-09-06T09:02:45.651Z,4.23
2022-09-06T09:05:24.339Z,5.03
2022-09-06T09:08:05.301Z,4.43
2022-09-06T09:10:42.385Z,4.70
2022-09-06T09:13:23.428Z,4.50
2022-09-06T09:15:51.864Z,4.50
2022-09-06T09:18:24.788Z,4.90
2022-09-06T09:20:53.734Z,4.00
2022-09-06T09:23:22.209Z,4.07
2022-09-06T09:25:53.513Z,4.40
2022-09-06T09:28:25.207Z,4.40
2022-09-06T09:30:55.635Z,4.63
2022-09-06T09:33:26.899Z,4.60
2022-09-06T09:35:56.120Z,4.10
2022-09-06T09:38:27.041Z,4.73
2022-09-06T09:40:57.216Z,3.93
2022-09-06T09:43:30.971Z,4.10
2022-09-06T09:46:11.230Z,4.80
2022-09-06T09:48:40.152Z,4.80
2022-09-06T09:51:26.626Z,4.73
2022-09-06T09:53:57.018Z,5.30
2022-09-06T09:56:39.887Z,3.87
2022-09-06T09:59:22.990Z,4.50
2022-09-06T10:01:53.269Z,4.40
2022-09-06T10:04:45.710Z,4.23
2022-09-06T10:07:16.951Z,4.80
2022-09-06T10:09:48.112Z,5.13
2022-09-06T10:12:30.120Z,4.03
2022-09-06T10:15:06.984Z,4.80
2022-09-06T10:17:37.801Z,5.47
2022-09-06T10:20:09.359Z,4.43
2022-09-06T10:22:50.454Z,4.03
2022-09-06T10:25:39.525Z,5.30
2022-09-06T10:28:31.199Z,4.70
2022-09-06T10:31:35.271Z,4.67
2022-09-06T10:34:25.173Z,4.40
2022-09-06T10:37:03.579Z,4.67
2022-09-06T10:39:44.608Z,4.33
2022-09-06T10:42:23.922Z,4.80
2022-09-06T10:45:16.796Z,6.37
2022-09-06T10:47:59.479Z,4.57
2022-09-06T10:50:37.571Z,3.93
2022-09-06T10:53:10.407Z,3.13
2022-09-06T10:55:41.279Z,3.90
2022-09-06T11:00:47.754Z,3.20
2022-09-06T11:06:28.828Z,2.47
2022-09-06T11:09:03.770Z,3.07
2022-09-06T11:11:37.855Z,2.10
2022-09-06T11:14:11.466Z,2.50
2022-09-06T11:16:45.760Z,2.60
2022-09-06T11:19:21.573Z,2.97
2022-09-06T11:22:13.442Z,2.00
2022-09-06T11:25:00.996Z,2.60
2022-09-06T11:27:36.982Z,2.40
2022-09-06T11:30:07.268Z,2.10
2022-09-06T11:32:40.813Z,2.87
2022-09-06T11:35:21.640Z,1.70
2022-09-06T11:37:59.608Z,1.80
2022-09-06T11:40:30.056Z,1.90
2022-09-06T11:43:17.502Z,2.00
2022-09-06T11:45:48.806Z,1.77
2022-09-06T11:49:00.715Z,1.87
2022-09-06T11:51:49.264Z,1.87
2022-09-06T11:54:26.996Z,1.60
2022-09-06T11:57:01.012Z,1.43
2022-09-06T11:59:37.190Z,1.63
2022-09-06T12:02:08.019Z,1.57
2022-09-06T12:05:10.547Z,1.57
2022-09-06T12:08:30.417Z,1.70
2022-09-06T12:11:05.320Z,1.60
2022-09-06T12:13:42.634Z,1.77
2022-09-06T12:16:12.618Z,2.07
2022-09-06T12:18:59.106Z,2.40
2022-09-06T12:21:42.472Z,2.20
2022-09-06T12:24:50.878Z,2.23
2022-09-06T12:27:20.617Z,2.30
2022-09-06T12:29:58.272Z,2.00
2022-09-06T12:32:37.059Z,2.20
2022-09-06T12:37:57.408Z,2.23
2022-09-06T12:40:29.314Z,2.30
2022-09-06T12:42:58.469Z,2.30
2022-09-06T12:45:27.819Z,1.53
2022-09-06T12:48:08.636Z,1.50
2022-09-06T12:50:37.828Z,1.30
2022-09-06T12:53:23.366Z,1.27
2022-09-06T12:56:05.216Z,1.70
2022-09-06T12:58:34.237Z,1.20
2022-09-06T13:01:10.065Z,1.70
2022-09-06T13:03:41.822Z,1.50
2022-09-06T13:06:21.203Z,1.73
2022-09-06T13:08:54.635Z,2.07
2022-09-06T13:11:29.573Z,2.63
2022-09-06T13:13:58.165Z,2.00
2022-09-06T13:16:28.668Z,2.10
2022-09-06T13:19:11.593Z,2.47
2022-09-06T13:21:42.230Z,2.63
2022-09-06T13:24:20.799Z,2.57
2022-09-06T13:26:51.281Z,3.07
2022-09-06T13:29:27.318Z,2.95
2022-09-06T13:31:57.704Z,3.10
2022-09-06T13:34:28.195Z,2.83
2022-09-06T13:37:01.799Z,3.17
2022-09-06T13:39:32.785Z,3.07
2022-09-06T13:42:08.519Z,2.60
2022-09-06T13:44:38.789Z,2.40
2022-09-06T13:47:07.896Z,2.83
2022-09-06T13:49:36.146Z,2.53
2022-09-06T13:52:06.103Z,3.10
2022-09-06T13:54:34.920Z,2.83
2022-09-06T13:57:03.499Z,2.70
2022-09-06T13:59:33.297Z,2.20
2022-09-06T14:02:03.811Z,2.50
2022-09-06T14:04:32.664Z,2.30
2022-09-06T14:07:00.988Z,2.60
2022-09-06T14:09:29.621Z,2.43
2022-09-06T14:11:58.263Z,2.57
2022-09-06T14:14:27.039Z,2.53
2022-09-06T14:16:57.255Z,2.57
2022-09-06T14:19:25.683Z,2.63
2022-09-06T14:21:54.289Z,2.53
2022-09-06T14:24:22.637Z,2.03
2022-09-06T14:26:51.392Z,2.47
2022-09-06T14:29:19.809Z,2.50
2022-09-06T14:31:49.045Z,2.73
2022-09-06T14:34:18.938Z,2.87
2022-09-06T14:36:47.198Z,2.63
2022-09-06T14:39:15.568Z,2.70
2022-09-06T14:41:43.991Z,2.87
2022-09-06T14:44:12.382Z,3.10
2022-09-06T14:46:40.857Z,2.13
2022-09-06T14:49:11.294Z,2.97
2022-09-06T14:51:41.495Z,2.10
2022-09-06T14:54:11.678Z,2.80
2022-09-06T14:56:41.910Z,2.90
2022-09-06T14:59:10.888Z,2.60
2022-09-06T15:01:41.178Z,2.43
2022-09-06T15:04:11.845Z,2.20
2022-09-06T15:06:47.041Z,2.07
2022-09-06T15:09:16.328Z,2.20
2022-09-06T15:11:48.144Z,3.03
2022-09-06T15:14:18.636Z,3.33
2022-09-06T15:16:52.046Z,2.87
2022-09-06T15:19:24.458Z,2.60
2022-09-06T15:21:54.515Z,2.90
2022-09-06T15:24:23.158Z,2.60
2022-09-06T15:26:51.856Z,2.23
2022-09-06T15:29:20.575Z,2.50
2022-09-06T15:31:52.036Z,2.13
2022-09-06T15:34:23.480Z,2.30
2022-09-06T15:36:54.653Z,3.10
2022-09-06T15:39:23.606Z,2.23
2022-09-06T15:41:52.735Z,2.40
2022-09-06T15:44:22.503Z,2.33
2022-09-06T15:46:53.220Z,2.73
2022-09-06T15:49:27.774Z,2.80
2022-09-06T15:51:58.667Z,2.77
2022-09-06T15:54:41.432Z,2.00
2022-09-06T15:57:10.670Z,2.73
2022-09-06T15:59:40.523Z,2.60
2022-09-06T16:02:09.653Z,2.40
2022-09-06T16:04:38.073Z,2.53
2022-09-06T16:07:08.465Z,2.47
2022-09-06T16:09:37.320Z,2.37
2022-09-06T16:12:06.167Z,1.83
2022-09-06T16:14:35.787Z,2.23
2022-09-06T16:17:04.977Z,2.20
2022-09-06T16:19:33.845Z,1.93
2022-09-06T16:22:02.529Z,2.37
2022-09-06T16:24:33.127Z,2.50
2022-09-06T16:27:02.496Z,2.17
2022-09-06T16:29:31.890Z,2.67
2022-09-06T16:32:03.559Z,3.30
2022-09-06T16:34:32.031Z,2.50
2022-09-06T16:37:00.684Z,2.10
2022-09-06T16:39:29.146Z,1.93
2022-09-06T16:41:59.330Z,2.50
2022-09-06T16:44:28.547Z,1.87
2022-09-06T16:46:57.661Z,2.20
2022-09-06T16:49:26.235Z,1.80
2022-09-06T16:51:54.732Z,2.07
2022-09-06T16:54:23.187Z,2.93
2022-09-06T16:56:51.616Z,2.27
2022-09-06T16:59:21.892Z,2.10
2022-09-06T17:01:51.699Z,2.70
2022-09-06T17:04:20.265Z,2.10
2022-09-06T17:06:48.673Z,2.10
2022-09-06T17:09:19.239Z,2.40
2022-09-06T17:11:50.318Z,2.30
2022-09-06T17:14:20.607Z,2.80
2022-09-06T17:17:07.647Z,2.10
2022-09-06T17:19:38.034Z,2.40
2022-09-06T17:22:06.564Z,2.03
2022-09-06T17:24:35.109Z,2.33
2022-09-06T17:27:03.725Z,2.20
2022-09-06T17:29:33.723Z,2.00
2022-09-06T17:32:04.074Z,2.00
2022-09-06T17:34:32.725Z,2.87
2022-09-06T17:37:01.171Z,2.20
2022-09-06T17:39:29.605Z,2.30
2022-09-06T17:41:59.001Z,2.13
2022-09-06T17:44:28.627Z,2.47
2022-09-06T17:47:14.835Z,2.93
2022-09-06T17:49:43.422Z,2.10
2022-09-06T17:52:12.135Z,1.70
2022-09-06T17:54:40.561Z,2.00
2022-09-06T17:57:08.906Z,2.07
2022-09-06T17:59:38.489Z,2.07
2022-09-06T18:02:09.140Z,2.23
2022-09-06T18:04:37.583Z,2.17
2022-09-06T18:07:06.131Z,2.20
2022-09-06T18:09:34.567Z,2.70
2022-09-06T18:12:03.016Z,2.00
2022-09-06T18:14:31.332Z,2.03
2022-09-06T18:16:59.900Z,1.80
2022-09-06T18:19:29.939Z,1.30
2022-09-06T18:21:58.441Z,1.97
2022-09-06T18:24:27.193Z,1.50
2022-09-06T18:26:55.690Z,2.03
2022-09-06T18:29:24.082Z,1.47
2022-09-06T18:31:54.137Z,1.20
2022-09-06T18:34:22.734Z,1.30
2022-09-06T18:36:52.589Z,1.13
2022-09-06T18:39:21.165Z,1.40
2022-09-06T18:42:01.316Z,1.40
2022-09-06T18:44:32.422Z,1.20
2022-09-06T18:47:02.364Z,1.33
2022-09-06T18:49:32.520Z,1.20
2022-09-06T18:52:02.689Z,1.23
2022-09-06T18:54:31.576Z,1.47
2022-09-06T18:57:00.388Z,1.30
2022-09-06T18:59:29.243Z,0.97
2022-09-06T19:01:58.047Z,1.00
2022-09-06T19:04:26.635Z,1.63
2022-09-06T19:06:54.984Z,1.13
2022-09-06T19:09:25.165Z,1.37
2022-09-06T19:11:53.865Z,2.03
2022-09-06T19:14:23.476Z,1.47
2022-09-06T19:16:54.269Z,1.67
2022-09-06T19:19:23.320Z,1.40
2022-09-06T19:21:51.790Z,1.20
2022-09-06T19:24:22.614Z,1.53
2022-09-06T19:26:52.968Z,1.50
2022-09-06T19:29:21.824Z,1.50
2022-09-06T19:31:50.551Z,1.03
2022-09-06T19:34:19.207Z,1.37
2022-09-06T19:36:48.885Z,1.20
2022-09-06T19:39:17.934Z,1.47
2022-09-06T19:41:47.689Z,1.30
2022-09-06T19:44:20.751Z,1.17
2022-09-06T19:46:49.684Z,1.37
2022-09-06T19:49:20.182Z,1.17
2022-09-06T19:51:50.849Z,1.17
2022-09-06T19:54:20.422Z,1.00
2022-09-06T19:56:48.895Z,1.17
2022-09-06T19:59:19.288Z,1.23
2022-09-06T20:01:48.383Z,1.10
2022-09-06T20:04:20.055Z,1.53
2022-09-06T20:06:48.714Z,1.27
2022-09-06T20:09:17.401Z,1.40
2022-09-06T20:11:46.506Z,1.50
2022-09-06T20:14:14.951Z,1.47
2022-09-06T20:16:45.503Z,1.20
2022-09-06T20:19:15.219Z,1.57
2022-09-06T20:21:44.373Z,2.23
2022-09-06T20:24:12.805Z,1.73
2022-09-06T20:26:41.472Z,2.67
2022-09-06T20:29:10.379Z,1.77
2022-09-06T20:31:39.728Z,2.47
2022-09-06T20:34:09.503Z,2.10
2022-09-06T20:36:38.023Z,1.57
2022-09-06T20:39:06.350Z,2.37
2022-09-06T20:41:35.219Z,1.60
2022-09-06T20:44:04.014Z,1.97
2022-09-06T20:46:33.989Z,2.60
2022-09-06T20:49:04.722Z,2.60
2022-09-06T20:51:37.260Z,2.60
2022-09-06T20:54:06.983Z,2.23
2022-09-06T20:56:37.707Z,2.10
2022-09-06T20:59:08.635Z,2.37
2022-09-06T21:01:40.318Z,2.20
2022-09-06T21:04:10.315Z,2.53
2022-09-06T21:06:41.332Z,2.30
2022-09-06T21:09:12.363Z,1.87
2022-09-06T21:11:41.551Z,2.30
2022-09-06T21:14:10.923Z,2.07
2022-09-06T21:16:40.595Z,2.77
2022-09-06T21:19:10.782Z,2.10
2022-09-06T21:21:41.159Z,2.87
2022-09-06T21:24:10.434Z,2.13
2022-09-06T21:26:38.914Z,2.10
2022-09-06T21:29:07.239Z,2.20
2022-09-06T21:31:37.136Z,2.53
2022-09-06T21:34:11.451Z,1.90
2022-09-06T21:36:44.540Z,2.33
2022-09-06T21:39:13.447Z,2.77
2022-09-06T21:41:43.454Z,2.33
2022-09-06T21:44:12.770Z,2.47
2022-09-06T21:46:41.917Z,2.57
2022-09-06T21:49:12.503Z,2.53
2022-09-06T21:51:41.653Z,2.70
2022-09-06T21:54:11.828Z,3.20
2022-09-06T21:56:41.037Z,2.57
2022-09-06T21:59:09.773Z,2.70
2022-09-06T22:01:39.842Z,2.83
2022-09-06T22:04:08.807Z,3.07
2022-09-06T22:06:37.871Z,3.30
2022-09-06T22:09:10.823Z,3.20
2022-09-06T22:11:42.138Z,2.67
2022-09-06T22:14:11.788Z,2.40
2022-09-06T22:16:41.588Z,2.23
2022-09-06T22:19:11.066Z,1.97
2022-09-06T22:21:39.935Z,2.37
2022-09-06T22:24:10.146Z,2.20
2022-09-06T22:26:41.522Z,1.73
2022-09-06T22:29:11.928Z,2.27
2022-09-06T22:31:40.923Z,2.23
2022-09-06T22:34:10.402Z,2.20
2022-09-06T22:36:38.821Z,1.67
2022-09-06T22:39:07.183Z,2.07
2022-09-06T22:41:35.515Z,2.10
2022-09-06T22:44:06.103Z,1.73
2022-09-06T22:46:34.676Z,1.63
2022-09-06T22:49:04.159Z,1.90
2022-09-06T22:51:32.644Z,2.47
2022-09-06T22:54:00.967Z,1.53
2022-09-06T22:56:29.417Z,2.00
2022-09-06T22:58:57.754Z,2.73
2022-09-06T23:01:27.793Z,1.70
2022-09-06T23:03:56.355Z,1.53
2022-09-06T23:06:24.696Z,2.13
2022-09-06T23:08:52.993Z,1.67
2022-09-06T23:11:21.463Z,1.57
2022-09-06T23:13:49.927Z,2.03
2022-09-06T23:16:19.804Z,2.03
2022-09-06T23:18:49.737Z,2.50
2022-09-06T23:21:20.056Z,1.87
2022-09-06T23:23:49.471Z,2.27
2022-09-06T23:26:19.938Z,2.10
2022-09-06T23:28:51.319Z,2.10
2022-09-06T23:31:19.836Z,2.00
2022-09-06T23:33:53.355Z,1.87
2022-09-06T23:36:21.892Z,2.17
2022-09-06T23:38:50.755Z,2.10
2022-09-06T23:41:19.158Z,2.00
2022-09-06T23:43:47.422Z,2.50
2022-09-06T23:46:16.243Z,2.00
2022-09-06T23:48:44.958Z,2.17
2022-09-06T23:51:15.149Z,1.97
2022-09-06T23:53:43.462Z,2.40
2022-09-06T23:56:12.331Z,1.73
2022-09-06T23:58:40.920Z,2.33
